M I D A S
Marine Information and Data Acquisition System
Tripno 1679 of the Zeeleeuw from 2009-04-22 07:15:18 to 2009-04-22 11:59:43
Back to CruiseResearch ActivitiesStationsMapUnderway DataData graphs

EquipmentUnitsComment
TimeDGPSUTC
LatitudeDGPSDM.mWGS84
LongitudeDGPSDM.mWGS84
HeadingGyrodeg 
SOGDGPSknotsSpeed over ground
COGDGPSdegCourse over ground
DepthEcho soundermeters200 kHz
Missing or incorrect values are displayed as -999
Navigation data collected by the RV Zeeleeuw from 2009-04-22 07:07:40 to 2009-04-22 12:13:01
Time Latitude Longitude Heading SOG COG Depth
2009-04-22 07:08:49 51°13.679 2°55.895 108.1 3.2 288 -999
2009-04-22 07:09:48 51°13.694 2°55.807 105.1 3.2 285 -999
2009-04-22 07:10:47 51°13.704 2°55.749 95.5 1 286 12.9
2009-04-22 07:11:46 51°13.71 2°55.751 53.8 0.3 280 12.5
2009-04-22 07:12:46 51°13.709 2°55.737 19.5 1.5 3 -999
2009-04-22 07:13:45 51°13.762 2°55.691 327.4 5.8 325 10.2
2009-04-22 07:14:45 51°13.862 2°55.604 336.1 7.4 334 10.5
2009-04-22 07:15:45 51°13.982 2°55.519 338.4 8.2 337 10.6
2009-04-22 07:16:45 51°14.107 2°55.426 336.1 8.4 334 10.5
2009-04-22 07:17:46 51°14.228 2°55.304 323.8 8.5 321 10.6
2009-04-22 07:18:45 51°14.324 2°55.136 310 9 308 10.6
2009-04-22 07:19:45 51°14.415 2°54.942 310 9.5 309 10.5
2009-04-22 07:20:45 51°14.533 2°54.759 324.5 10.1 320 10.3
2009-04-22 07:21:45 51°14.667 2°54.602 337.5 9.9 333 10
2009-04-22 07:22:45 51°14.814 2°54.484 337.1 9.9 331 9.9
2009-04-22 07:23:45 51°14.955 2°54.348 332.5 10.1 326 8.7
2009-04-22 07:24:45 51°15.105 2°54.189 333.5 10 326 8.5
2009-04-22 07:25:45 51°15.202 2°54.089 337.9 5.4 328 9.3
2009-04-22 07:26:45 51°15.267 2°54.018 335.6 4.3 322 9.5
2009-04-22 07:27:45 51°15.305 2°53.928 289.5 4.5 273 9.7
2009-04-22 07:28:45 51°15.259 2°53.83 205.3 5.8 206 10
2009-04-22 07:29:45 51°15.12 2°53.816 173.2 10.3 176 9.8
2009-04-22 07:30:45 51°14.935 2°53.858 166.7 11.5 168 9.7
2009-04-22 07:31:45 51°14.747 2°53.946 159 12.1 164 10.5
2009-04-22 07:32:45 51°14.543 2°53.976 183.5 12.3 188 10.5
2009-04-22 07:33:46 51°14.355 2°53.837 214.9 12.5 217 10
2009-04-22 07:34:45 51°14.213 2°53.603 232.2 12.5 233 9.8
2009-04-22 07:35:46 51°14.088 2°53.329 234.8 12.6 234 10.1
2009-04-22 07:36:45 51°13.965 2°53.064 234.6 12.6 233 10.3
2009-04-22 07:37:45 51°13.836 2°52.799 232.6 12.7 231 10.4
2009-04-22 07:38:45 51°13.704 2°52.537 231.4 12.7 233 10.3
2009-04-22 07:39:45 51°13.574 2°52.283 232.8 11.5 231 10.4
2009-04-22 07:40:45 51°13.481 2°52.053 244.4 9.5 242 10.4
2009-04-22 07:41:45 51°13.416 2°51.845 246.5 8.4 244 10.7
2009-04-22 07:42:46 51°13.358 2°51.654 246.9 7.3 244 10.8
2009-04-22 07:43:45 51°13.308 2°51.497 245.7 5.9 243 10.9
2009-04-22 07:44:46 51°13.266 2°51.368 246.9 4.7 243 11
2009-04-22 07:45:45 51°13.241 2°51.284 260.8 2.2 249 11
2009-04-22 07:46:45 51°13.23 2°51.262 275.4 0.9 212 11
2009-04-22 07:47:45 51°13.217 2°51.248 265.7 0.9 213 11
2009-04-22 07:48:45 51°13.204 2°51.236 260.3 0.9 208 10.9
2009-04-22 07:49:45 51°13.192 2°51.224 258.3 0.9 207 11
2009-04-22 07:50:45 51°13.179 2°51.213 258 0.9 209 11
2009-04-22 07:51:45 51°13.166 2°51.202 257 0.9 207 11
2009-04-22 07:52:45 51°13.153 2°51.19 259 0.8 214 11
2009-04-22 07:53:46 51°13.14 2°51.178 258.7 0.9 208 11
2009-04-22 07:54:45 51°13.128 2°51.167 261.7 0.8 215 11
2009-04-22 07:55:46 51°13.116 2°51.155 263.2 0.8 212 10.9
2009-04-22 07:56:45 51°13.105 2°51.145 264 0.7 214 11
2009-04-22 07:57:45 51°13.094 2°51.135 265 0.7 214 10.9
2009-04-22 07:58:45 51°13.084 2°51.126 268.1 0.7 213 10.9
2009-04-22 07:59:45 51°13.074 2°51.117 269.8 0.7 206 10.8
2009-04-22 08:00:46 51°13.064 2°51.108 270.4 0.7 204 10.9
2009-04-22 08:01:45 51°13.054 2°51.1 269.4 0.7 205 10.9
2009-04-22 08:02:45 51°13.044 2°51.093 269.3 0.5 211 10.9
2009-04-22 08:03:45 51°13.033 2°51.081 265.9 1.8 244 10.9
2009-04-22 08:04:46 51°12.992 2°51.01 208.6 4.3 210 10.8
2009-04-22 08:05:46 51°12.93 2°50.96 212 4 213 10.7
2009-04-22 08:06:46 51°12.884 2°50.892 232.5 3.6 231 10.5
2009-04-22 08:07:46 51°12.852 2°50.814 243.7 3.5 242 10.6
2009-04-22 08:08:45 51°12.827 2°50.734 248 3.3 247 10.6
2009-04-22 08:09:45 51°12.8 2°50.654 241.1 3.7 237 10.6
2009-04-22 08:10:45 51°12.764 2°50.57 235.3 4 233 10.6
2009-04-22 08:11:46 51°12.723 2°50.483 234.5 4 233 10.6
2009-04-22 08:12:45 51°12.685 2°50.404 234.5 3.7 231 10.6
2009-04-22 08:13:45 51°12.65 2°50.328 235.5 3.6 234 10.5
2009-04-22 08:14:45 51°12.614 2°50.253 234.5 3.5 233 10.5
2009-04-22 08:15:45 51°12.578 2°50.179 233.2 3.5 230 10.5
2009-04-22 08:16:45 51°12.539 2°50.111 229.1 3.5 226 10.4
2009-04-22 08:17:45 51°12.498 2°50.045 229.6 3.5 223 10.4
2009-04-22 08:18:46 51°12.458 2°49.975 229.5 3.5 226 10.4
2009-04-22 08:19:46 51°12.419 2°49.906 229.6 3.5 225 10.4
2009-04-22 08:20:46 51°12.379 2°49.84 232.9 3.4 227 10.4
2009-04-22 08:21:46 51°12.347 2°49.768 238.3 3.4 235 10.4
2009-04-22 08:22:46 51°12.315 2°49.693 237.4 3.4 238 10.4
2009-04-22 08:23:45 51°12.282 2°49.622 235.6 3.4 236 10.5
2009-04-22 08:24:46 51°12.247 2°49.55 235.2 3.4 234 10.5
2009-04-22 08:25:46 51°12.212 2°49.479 235.2 3.4 231 10.5
2009-04-22 08:26:45 51°12.177 2°49.408 234.6 3.5 233 10.5
2009-04-22 08:27:45 51°12.141 2°49.335 235.5 3.5 234 10.5
2009-04-22 08:28:45 51°12.106 2°49.26 235.9 3.5 234 10.5
2009-04-22 08:29:46 51°12.071 2°49.181 235.5 3.6 235 10.5
2009-04-22 08:30:46 51°12.036 2°49.103 236 3.6 235 10.5
2009-04-22 08:31:46 51°12 2°49.025 234.3 3.6 234 10.5
2009-04-22 08:32:46 51°11.964 2°48.948 235.9 3.6 236 10.5
2009-04-22 08:33:45 51°11.93 2°48.87 235.2 3.7 236 10.5
2009-04-22 08:34:45 51°11.894 2°48.793 234.9 3.6 235 10.5
2009-04-22 08:35:45 51°11.862 2°48.713 241 3.6 239 10.5
2009-04-22 08:36:46 51°11.832 2°48.628 240.6 3.6 241 10.5
2009-04-22 08:37:45 51°11.802 2°48.548 241.3 3.6 239 10.5
2009-04-22 08:38:46 51°11.774 2°48.465 245.4 3.5 245 10.6
2009-04-22 08:39:46 51°11.759 2°48.383 257.9 3.1 258 10.5
2009-04-22 08:40:45 51°11.753 2°48.305 262.7 2.9 263 10.5
2009-04-22 08:41:46 51°11.757 2°48.227 281.2 2.9 286 10.6
2009-04-22 08:42:46 51°11.773 2°48.175 294.8 1.8 307 10.6
2009-04-22 08:43:45 51°11.788 2°48.149 300.1 1.1 322 10.6
2009-04-22 08:44:45 51°11.8 2°48.136 301.7 0.7 335 10.7
2009-04-22 08:45:46 51°11.809 2°48.13 301.7 0.5 347 10.7
2009-04-22 08:46:46 51°11.817 2°48.127 304.9 0.7 336 10.8
2009-04-22 08:47:45 51°11.836 2°48.117 334 1.7 356 10.9
2009-04-22 08:48:46 51°11.871 2°48.128 3.1 2.5 20 11
2009-04-22 08:49:46 51°11.914 2°48.16 17.6 3.1 28 11.4
2009-04-22 08:50:45 51°11.96 2°48.205 27.6 3.4 37 11.6
2009-04-22 08:51:45 51°11.993 2°48.27 54.6 2.8 59 11.7
2009-04-22 08:52:45 51°12.012 2°48.329 60.1 2.3 64 11.7
2009-04-22 08:53:45 51°12.026 2°48.379 58.8 1.9 64 11.7
2009-04-22 08:54:45 51°12.039 2°48.424 57 1.7 63 11.7
2009-04-22 08:55:45 51°12.048 2°48.464 58.6 1.6 66 11.7
2009-04-22 08:56:45 51°12.056 2°48.501 60.3 1.4 74 11.7
2009-04-22 08:57:45 51°12.063 2°48.536 61.8 1.4 73 11.6
2009-04-22 08:58:45 51°12.069 2°48.569 62.8 1.3 77 11.7
2009-04-22 08:59:45 51°12.074 2°48.602 63.7 1.3 75 11.6
2009-04-22 09:00:45 51°12.08 2°48.634 63.8 1.3 81 11.6
2009-04-22 09:01:46 51°12.085 2°48.667 65 1.3 78 11.5
2009-04-22 09:02:45 51°12.09 2°48.699 68.3 1.2 78 11.6
2009-04-22 09:03:45 51°12.094 2°48.731 72.4 1.2 79 11.5
2009-04-22 09:04:45 51°12.098 2°48.762 76 1.3 80 11.5
2009-04-22 09:05:45 51°12.103 2°48.794 77.3 1.3 74 11.5
2009-04-22 09:06:45 51°12.108 2°48.828 77.2 1.3 73 11.5
2009-04-22 09:07:46 51°12.114 2°48.862 75.7 1.3 79 11.5
2009-04-22 09:08:45 51°12.12 2°48.895 74.7 1.3 74 11.5
2009-04-22 09:09:45 51°12.126 2°48.929 72.9 1.3 76 11.5
2009-04-22 09:10:46 51°12.132 2°48.964 73.5 1.3 85 11.4
2009-04-22 09:11:45 51°12.138 2°48.997 73.4 1.3 79 11.5
2009-04-22 09:12:45 51°12.144 2°49.03 72.9 1.3 74 11.4
2009-04-22 09:13:45 51°12.151 2°49.064 72.7 1.3 68 11.5
2009-04-22 09:14:46 51°12.157 2°49.097 73 1.3 72 11.5
2009-04-22 09:15:45 51°12.164 2°49.128 72.8 1.3 72 11.5
2009-04-22 09:16:45 51°12.17 2°49.161 71.8 1.3 77 11.4
2009-04-22 09:17:45 51°12.176 2°49.194 72.7 1.3 69 11.5
2009-04-22 09:18:46 51°12.182 2°49.227 73.8 1.3 73 11.5
2009-04-22 09:19:45 51°12.188 2°49.26 74.1 1.3 69 11.5
2009-04-22 09:20:45 51°12.194 2°49.293 76.2 1.3 72 11.5
2009-04-22 09:21:45 51°12.2 2°49.326 76.3 1.3 73 11.5
2009-04-22 09:22:46 51°12.206 2°49.361 77.1 1.3 76 11.5
2009-04-22 09:23:45 51°12.212 2°49.395 78.2 1.3 78 11.5
2009-04-22 09:24:45 51°12.217 2°49.428 79.4 1.3 80 11.5
2009-04-22 09:25:46 51°12.224 2°49.463 79.6 1.4 71 11.5
2009-04-22 09:26:46 51°12.23 2°49.498 79.2 1.4 74 11.5
2009-04-22 09:27:45 51°12.236 2°49.533 79 1.4 69 11.6
2009-04-22 09:28:45 51°12.243 2°49.567 77 1.4 74 11.6
2009-04-22 09:29:46 51°12.25 2°49.603 75.6 1.4 72 11.6
2009-04-22 09:30:46 51°12.256 2°49.638 75.6 1.4 73 11.6
2009-04-22 09:31:45 51°12.263 2°49.672 75.2 1.4 75 11.7
2009-04-22 09:32:45 51°12.27 2°49.707 74.8 1.4 74 11.7
2009-04-22 09:33:45 51°12.277 2°49.742 74 1.4 77 11.7
2009-04-22 09:34:46 51°12.285 2°49.778 73.1 1.4 76 11.7
2009-04-22 09:35:45 51°12.293 2°49.815 70.3 1.8 71 11.7
2009-04-22 09:36:46 51°12.308 2°49.864 49.9 2.2 60 11.7
2009-04-22 09:37:45 51°12.331 2°49.91 23.9 2.3 45 11.7
2009-04-22 09:38:46 51°12.361 2°49.942 351.4 2 26 11.7
2009-04-22 09:39:45 51°12.389 2°49.957 331.4 1.7 16 11.7
2009-04-22 09:40:45 51°12.415 2°49.964 320.1 1.5 3 11.8
2009-04-22 09:41:46 51°12.44 2°49.965 314.3 1.4 358 11.8
2009-04-22 09:42:46 51°12.465 2°49.964 310.7 1.5 358 11.8
2009-04-22 09:43:45 51°12.489 2°49.961 309.7 1.6 351 11.9
2009-04-22 09:44:45 51°12.518 2°49.952 311.5 1.9 350 12
2009-04-22 09:45:46 51°12.551 2°49.941 314.4 2.1 349 12.1
2009-04-22 09:46:46 51°12.58 2°49.908 278.3 1.6 310 12.3
2009-04-22 09:47:45 51°12.593 2°49.882 268.9 1.1 304 12.5
2009-04-22 09:48:45 51°12.604 2°49.863 269.7 0.9 312 12.6
2009-04-22 09:49:45 51°12.616 2°49.848 274.2 0.7 319 12.8
2009-04-22 09:50:46 51°12.63 2°49.838 280.2 0.9 342 12.9
2009-04-22 09:51:46 51°12.646 2°49.833 284.2 1 350 13
2009-04-22 09:52:46 51°12.664 2°49.829 288.1 1 355 13.1
2009-04-22 09:53:45 51°12.682 2°49.827 291.8 1.1 355 13.3
2009-04-22 09:54:46 51°12.702 2°49.827 296.3 1.2 -999 13.4
2009-04-22 09:55:46 51°12.723 2°49.828 300.2 1.4 6 13.5
2009-04-22 09:56:46 51°12.744 2°49.836 303.5 1.2 18 13.7
2009-04-22 09:57:46 51°12.763 2°49.85 308.8 1.3 29 13.8
2009-04-22 09:58:46 51°12.78 2°49.868 313.9 1.3 35 13.8
2009-04-22 09:59:46 51°12.798 2°49.888 319.4 1.3 40 13.9
2009-04-22 10:00:45 51°12.813 2°49.911 323.1 1.3 43 14
2009-04-22 10:01:45 51°12.828 2°49.935 323.6 1.2 48 14
2009-04-22 10:02:45 51°12.842 2°49.96 321.7 1.2 50 14.1
2009-04-22 10:03:46 51°12.855 2°49.986 317.9 1.3 54 14
2009-04-22 10:04:46 51°12.867 2°50.012 311.9 1.3 57 14.1
2009-04-22 10:05:46 51°12.877 2°50.04 304.8 1.3 58 14
2009-04-22 10:06:46 51°12.887 2°50.067 297.5 1.1 64 14
2009-04-22 10:07:46 51°12.897 2°50.095 291.9 1.2 61 14.1
2009-04-22 10:08:46 51°12.906 2°50.124 288.1 1.3 61 14.1
2009-04-22 10:09:45 51°12.914 2°50.154 283.4 1.2 67 14.1
2009-04-22 10:10:46 51°12.923 2°50.185 277.7 1.2 73 14
2009-04-22 10:11:46 51°12.93 2°50.217 273.4 1.3 68 14
2009-04-22 10:12:45 51°12.938 2°50.248 270.6 1.3 65 14
2009-04-22 10:13:45 51°12.946 2°50.28 268.5 1.3 72 13.8
2009-04-22 10:14:46 51°12.954 2°50.314 266.7 1.3 67 13.9
2009-04-22 10:15:46 51°12.962 2°50.347 265.6 1.4 70 13.8
2009-04-22 10:16:46 51°12.97 2°50.381 264 1.3 68 13.8
2009-04-22 10:17:46 51°12.978 2°50.414 263.2 1.4 62 5.2
2009-04-22 10:18:46 51°12.986 2°50.447 264.6 1.4 66 13.7
2009-04-22 10:19:46 51°12.994 2°50.479 265 1.3 65 13.6
2009-04-22 10:20:46 51°13.002 2°50.512 266.6 1.3 65 13.7
2009-04-22 10:21:46 51°13.01 2°50.544 266.2 1.3 73 13.6
2009-04-22 10:22:46 51°13.017 2°50.577 264 1.4 68 13.6
2009-04-22 10:23:46 51°13.025 2°50.611 264 1.4 68 13.6
2009-04-22 10:24:46 51°13.034 2°50.644 263.8 1.4 63 13.5
2009-04-22 10:25:45 51°13.041 2°50.677 262.6 1.4 71 13.5
2009-04-22 10:26:46 51°13.05 2°50.711 263.3 1.4 65 13.4
2009-04-22 10:27:45 51°13.058 2°50.744 263.5 1.4 66 13.4
2009-04-22 10:28:46 51°13.066 2°50.777 264.8 1.3 68 13.3
2009-04-22 10:29:46 51°13.075 2°50.81 266.5 1.4 63 13.3
2009-04-22 10:30:45 51°13.083 2°50.841 267.6 1.3 65 13.3
2009-04-22 10:31:46 51°13.091 2°50.874 266.7 1.3 68 13.2
2009-04-22 10:32:46 51°13.1 2°50.907 266.3 1.3 70 13.3
2009-04-22 10:33:46 51°13.108 2°50.941 264.8 1.4 69 13.3
2009-04-22 10:34:45 51°13.116 2°50.975 263.6 1.4 66 13.3
2009-04-22 10:35:46 51°13.124 2°51.009 261.6 1.4 67 13.2
2009-04-22 10:36:45 51°13.132 2°51.042 259.6 1.4 74 13.2
2009-04-22 10:37:46 51°13.141 2°51.077 258.5 1.4 69 13.2
2009-04-22 10:38:46 51°13.149 2°51.11 257.5 1.4 66 13.2
2009-04-22 10:39:46 51°13.157 2°51.145 255.5 1.4 64 13.1
2009-04-22 10:40:46 51°13.165 2°51.178 255.8 1.3 69 13.1
2009-04-22 10:41:45 51°13.174 2°51.211 258.4 1.4 69 13
2009-04-22 10:42:46 51°13.183 2°51.244 260.2 1.4 66 13
2009-04-22 10:43:45 51°13.192 2°51.276 261.4 1.3 68 12.9
2009-04-22 10:44:46 51°13.201 2°51.309 261.2 1.3 70 13
2009-04-22 10:45:45 51°13.209 2°51.341 261.4 1.3 66 12.9
2009-04-22 10:46:46 51°13.218 2°51.375 260.7 1.4 65 12.9
2009-04-22 10:47:46 51°13.227 2°51.41 259 1.4 63 12.9
2009-04-22 10:48:46 51°13.236 2°51.444 259.7 1.4 73 12.8
2009-04-22 10:49:46 51°13.246 2°51.477 260 1.4 68 12.8
2009-04-22 10:50:45 51°13.255 2°51.51 260.3 1.3 67 12.8
2009-04-22 10:51:46 51°13.264 2°51.545 259.5 1.4 69 12.8
2009-04-22 10:52:46 51°13.273 2°51.578 260 1.3 70 12.7
2009-04-22 10:53:46 51°13.283 2°51.61 258.9 1.3 64 12.7
2009-04-22 10:54:45 51°13.291 2°51.642 260.3 1.3 67 12.8
2009-04-22 10:55:46 51°13.301 2°51.674 261.5 1.3 67 12.7
2009-04-22 10:56:46 51°13.309 2°51.707 260.7 1.3 73 12.7
2009-04-22 10:57:46 51°13.318 2°51.739 261 1.3 65 12.7
2009-04-22 10:58:46 51°13.326 2°51.771 262.7 1.3 65 12.7
2009-04-22 10:59:45 51°13.335 2°51.802 263.3 1.3 66 12.7
2009-04-22 11:00:46 51°13.344 2°51.834 263.5 1.3 70 12.6
2009-04-22 11:01:45 51°13.353 2°51.866 264.3 1.3 70 12.6
2009-04-22 11:02:46 51°13.361 2°51.899 263.8 1.4 67 12.5
2009-04-22 11:03:46 51°13.369 2°51.931 261.1 1.3 70 12.5
2009-04-22 11:04:46 51°13.378 2°51.964 259.3 1.3 68 12.5
2009-04-22 11:05:45 51°13.386 2°51.996 256.5 1.4 67 12.5
2009-04-22 11:06:46 51°13.395 2°52.029 256.3 1.3 70 12.5
2009-04-22 11:07:46 51°13.404 2°52.062 256.9 1.4 66 12.5
2009-04-22 11:08:45 51°13.412 2°52.093 257 1.3 71 12.5
2009-04-22 11:09:46 51°13.421 2°52.126 257.1 1.3 70 12.4
2009-04-22 11:10:46 51°13.429 2°52.158 258.5 1.3 67 12.5
2009-04-22 11:11:46 51°13.439 2°52.189 259.9 1.3 61 12.4
2009-04-22 11:12:46 51°13.448 2°52.221 260.8 1.3 63 12.3
2009-04-22 11:13:46 51°13.456 2°52.253 261.4 1.3 66 12.4
2009-04-22 11:14:46 51°13.464 2°52.285 261.5 1.3 68 12.4
2009-04-22 11:15:46 51°13.473 2°52.318 261.8 1.3 74 12.3
2009-04-22 11:16:46 51°13.481 2°52.35 261.7 1.3 73 12.3
2009-04-22 11:17:45 51°13.49 2°52.382 262.7 1.3 65 12.4
2009-04-22 11:18:46 51°13.498 2°52.414 263.6 1.3 64 12.3
2009-04-22 11:19:45 51°13.506 2°52.445 264.5 1.3 66 12.2
2009-04-22 11:20:46 51°13.514 2°52.475 266 1.2 67 12.2
2009-04-22 11:21:46 51°13.524 2°52.505 267.5 1.2 68 12.3
2009-04-22 11:22:46 51°13.531 2°52.535 268.6 1.2 65 12.3
2009-04-22 11:23:46 51°13.539 2°52.565 270.1 1.2 70 12.2
2009-04-22 11:24:46 51°13.548 2°52.595 270.8 1.3 67 12.2
2009-04-22 11:25:46 51°13.556 2°52.626 270.1 1.3 63 12.2
2009-04-22 11:26:46 51°13.563 2°52.657 269.4 1.2 72 12.2
2009-04-22 11:27:46 51°13.572 2°52.688 268.3 1.2 74 12.1
2009-04-22 11:28:46 51°13.58 2°52.719 267.8 1.2 72 12.1
2009-04-22 11:29:46 51°13.588 2°52.75 267.1 1.2 69 12.2
2009-04-22 11:30:46 51°13.596 2°52.782 266.3 1.3 66 12.1
2009-04-22 11:31:46 51°13.604 2°52.811 263.1 0.9 55 12
2009-04-22 11:32:46 51°13.613 2°52.761 271.5 4.9 277 11.9
2009-04-22 11:33:46 51°13.604 2°52.581 258.5 6.2 263 12.3
2009-04-22 11:34:46 51°13.602 2°52.476 265.9 2.7 278 12.5
2009-04-22 11:35:46 51°13.614 2°52.429 276.2 1.5 305 12.5
2009-04-22 11:36:46 51°13.631 2°52.41 285.8 1.2 341 12.6
2009-04-22 11:37:46 51°13.649 2°52.408 292.7 1.1 8 12.7
2009-04-22 11:38:46 51°13.666 2°52.416 298.3 1 23 12.7
2009-04-22 11:39:46 51°13.68 2°52.43 300.5 1 36 12.8
2009-04-22 11:40:46 51°13.692 2°52.446 300 0.9 49 12.7
2009-04-22 11:41:46 51°13.701 2°52.466 297.1 1 53 12.8
2009-04-22 11:42:45 51°13.71 2°52.487 293.4 1 61 12.9
2009-04-22 11:43:46 51°13.718 2°52.511 288.9 1 65 12.6
2009-04-22 11:44:46 51°13.725 2°52.536 283.7 1.1 65 12.7
2009-04-22 11:45:46 51°13.732 2°52.563 277.5 1.1 69 12.6
2009-04-22 11:46:46 51°13.739 2°52.59 272.4 1.1 75 12.6
2009-04-22 11:47:46 51°13.746 2°52.619 269.3 1.2 66 12.6
2009-04-22 11:48:46 51°13.76 2°52.62 297.8 1.6 338 12.6
2009-04-22 11:49:46 51°13.805 2°52.611 349.9 3.9 8 12.6
2009-04-22 11:50:46 51°13.875 2°52.724 61.5 8.3 61 12.7
2009-04-22 11:51:46 51°13.951 2°52.969 69.7 11.6 68 12.5
2009-04-22 11:52:46 51°14.031 2°53.263 69.8 12.5 67 12.1
2009-04-22 11:53:46 51°14.115 2°53.569 69 12.6 65 11.6
2009-04-22 11:54:46 51°14.203 2°53.866 68.4 11.9 66 11.5
2009-04-22 11:55:46 51°14.279 2°54.145 71.5 11.2 68 11.3
2009-04-22 11:56:46 51°14.35 2°54.411 67.2 10.5 64 11.6
2009-04-22 11:57:46 51°14.406 2°54.67 80.6 10.2 78 12.6
2009-04-22 11:58:46 51°14.397 2°54.929 106.8 9.6 104 12.5
2009-04-22 11:59:46 51°14.323 2°55.131 127.8 7.8 128 12.8
2009-04-22 12:00:46 51°14.261 2°55.247 136.7 4.5 136 12.7
2009-04-22 12:01:46 51°14.215 2°55.313 140.9 3.2 142 12.8
2009-04-22 12:02:46 51°14.178 2°55.36 138 2.7 140 12.7
2009-04-22 12:03:46 51°14.142 2°55.404 147.9 3 148 12.7
2009-04-22 12:04:46 51°14.087 2°55.448 156.4 4.7 156 12.7
2009-04-22 12:05:46 51°13.998 2°55.507 157.6 6.4 157 12.6
2009-04-22 12:06:46 51°13.898 2°55.577 156.4 6.7 156 12.8
2009-04-22 12:07:46 51°13.8 2°55.658 147.3 6.3 146 12.4
2009-04-22 12:08:46 51°13.737 2°55.751 132.7 4.4 133 13.4
2009-04-22 12:09:46 51°13.702 2°55.826 120.4 3.1 119 10.5
2009-04-22 12:10:46 51°13.68 2°55.902 115.5 3 115 9.1
2009-04-22 12:11:46 51°13.665 2°55.952 120.4 1.3 120 7.5
2009-04-22 12:12:46 51°13.662 2°55.959 122.2 0.1 87 7.7